sensor_id;sensor_type;location;lat;lon;timestamp;P1;durP1;ratioP1;P2;durP2;ratioP2
59159;SDS011;44941;45.058;20.076;2023-05-10T00:01:05;6.85;;;4.25;;
59159;SDS011;44941;45.058;20.076;2023-05-10T00:03:32;8.73;;;4.10;;
59159;SDS011;44941;45.058;20.076;2023-05-10T00:05:58;8.90;;;4.22;;
59159;SDS011;44941;45.058;20.076;2023-05-10T00:08:24;8.25;;;4.60;;
59159;SDS011;44941;45.058;20.076;2023-05-10T00:10:50;9.45;;;3.83;;
59159;SDS011;44941;45.058;20.076;2023-05-10T00:13:16;7.65;;;3.80;;
59159;SDS011;44941;45.058;20.076;2023-05-10T00:15:42;7.20;;;4.25;;
59159;SDS011;44941;45.058;20.076;2023-05-10T00:18:09;7.68;;;4.32;;
59159;SDS011;44941;45.058;20.076;2023-05-10T00:20:35;6.85;;;3.92;;
59159;SDS011;44941;45.058;20.076;2023-05-10T00:23:01;7.03;;;4.35;;
59159;SDS011;44941;45.058;20.076;2023-05-10T00:25:30;7.30;;;4.50;;
59159;SDS011;44941;45.058;20.076;2023-05-10T00:27:56;9.55;;;4.50;;
59159;SDS011;44941;45.058;20.076;2023-05-10T00:30:22;7.57;;;4.22;;
59159;SDS011;44941;45.058;20.076;2023-05-10T00:32:48;7.00;;;4.00;;
59159;SDS011;44941;45.058;20.076;2023-05-10T00:35:15;8.18;;;4.25;;
59159;SDS011;44941;45.058;20.076;2023-05-10T00:37:41;7.70;;;4.20;;
59159;SDS011;44941;45.058;20.076;2023-05-10T00:40:07;8.40;;;4.40;;
59159;SDS011;44941;45.058;20.076;2023-05-10T00:42:33;8.50;;;4.47;;
59159;SDS011;44941;45.058;20.076;2023-05-10T00:44:59;10.38;;;4.40;;
59159;SDS011;44941;45.058;20.076;2023-05-10T00:47:26;6.70;;;4.10;;
59159;SDS011;44941;45.058;20.076;2023-05-10T00:49:52;8.43;;;4.68;;
59159;SDS011;44941;45.058;20.076;2023-05-10T00:52:19;9.48;;;4.32;;
59159;SDS011;44941;45.058;20.076;2023-05-10T00:54:45;9.10;;;4.75;;
59159;SDS011;44941;45.058;20.076;2023-05-10T00:57:12;11.23;;;4.93;;
59159;SDS011;44941;45.058;20.076;2023-05-10T00:59:38;8.45;;;4.70;;
59159;SDS011;44941;45.058;20.076;2023-05-10T01:02:04;7.40;;;4.68;;
59159;SDS011;44941;45.058;20.076;2023-05-10T01:04:31;6.97;;;4.13;;
59159;SDS011;44941;45.058;20.076;2023-05-10T01:06:57;7.88;;;4.55;;
59159;SDS011;44941;45.058;20.076;2023-05-10T01:09:23;9.52;;;4.65;;
59159;SDS011;44941;45.058;20.076;2023-05-10T01:11:54;7.57;;;4.80;;
59159;SDS011;44941;45.058;20.076;2023-05-10T01:14:20;11.70;;;4.07;;
59159;SDS011;44941;45.058;20.076;2023-05-10T01:16:47;8.00;;;4.25;;
59159;SDS011;44941;45.058;20.076;2023-05-10T01:19:34;10.85;;;4.78;;
59159;SDS011;44941;45.058;20.076;2023-05-10T01:22:04;8.98;;;4.68;;
59159;SDS011;44941;45.058;20.076;2023-05-10T01:29:50;10.98;;;5.15;;
59159;SDS011;44941;45.058;20.076;2023-05-10T01:32:28;7.07;;;4.75;;
59159;SDS011;44941;45.058;20.076;2023-05-10T01:59:16;10.10;;;4.57;;
59159;SDS011;44941;45.058;20.076;2023-05-10T02:04:56;16.80;;;5.10;;
59159;SDS011;44941;45.058;20.076;2023-05-10T02:07:32;12.63;;;4.70;;
59159;SDS011;44941;45.058;20.076;2023-05-10T02:10:17;8.25;;;4.85;;
59159;SDS011;44941;45.058;20.076;2023-05-10T02:18:55;11.75;;;4.57;;
59159;SDS011;44941;45.058;20.076;2023-05-10T02:30:46;9.10;;;4.90;;
59159;SDS011;44941;45.058;20.076;2023-05-10T02:39:29;8.98;;;4.38;;
59159;SDS011;44941;45.058;20.076;2023-05-10T02:45:00;8.00;;;4.20;;
59159;SDS011;44941;45.058;20.076;2023-05-10T02:50:49;7.75;;;4.32;;
59159;SDS011;44941;45.058;20.076;2023-05-10T03:05:08;6.70;;;3.97;;
59159;SDS011;44941;45.058;20.076;2023-05-10T03:07:34;9.30;;;4.43;;
59159;SDS011;44941;45.058;20.076;2023-05-10T03:10:00;7.15;;;4.30;;
59159;SDS011;44941;45.058;20.076;2023-05-10T03:12:29;7.63;;;4.68;;
59159;SDS011;44941;45.058;20.076;2023-05-10T03:17:30;8.15;;;4.78;;
59159;SDS011;44941;45.058;20.076;2023-05-10T03:20:03;9.60;;;4.90;;
59159;SDS011;44941;45.058;20.076;2023-05-10T03:22:45;6.90;;;4.32;;
59159;SDS011;44941;45.058;20.076;2023-05-10T03:25:12;9.35;;;4.80;;
59159;SDS011;44941;45.058;20.076;2023-05-10T03:27:41;8.02;;;4.93;;
59159;SDS011;44941;45.058;20.076;2023-05-10T03:30:10;8.98;;;4.60;;
59159;SDS011;44941;45.058;20.076;2023-05-10T03:32:36;9.20;;;5.03;;
59159;SDS011;44941;45.058;20.076;2023-05-10T03:35:06;7.97;;;5.05;;
59159;SDS011;44941;45.058;20.076;2023-05-10T03:37:33;9.23;;;5.18;;
59159;SDS011;44941;45.058;20.076;2023-05-10T03:39:59;9.82;;;5.18;;
59159;SDS011;44941;45.058;20.076;2023-05-10T03:45:29;7.50;;;4.63;;
59159;SDS011;44941;45.058;20.076;2023-05-10T03:47:56;9.82;;;4.72;;
59159;SDS011;44941;45.058;20.076;2023-05-10T03:50:22;9.82;;;5.55;;
59159;SDS011;44941;45.058;20.076;2023-05-10T03:52:48;8.73;;;5.38;;
59159;SDS011;44941;45.058;20.076;2023-05-10T03:55:15;9.38;;;6.28;;
59159;SDS011;44941;45.058;20.076;2023-05-10T03:57:41;10.90;;;5.95;;
59159;SDS011;44941;45.058;20.076;2023-05-10T04:00:07;7.88;;;5.15;;
59159;SDS011;44941;45.058;20.076;2023-05-10T04:02:33;8.80;;;5.07;;
59159;SDS011;44941;45.058;20.076;2023-05-10T04:04:59;9.45;;;4.82;;
59159;SDS011;44941;45.058;20.076;2023-05-10T04:07:26;7.78;;;4.95;;
59159;SDS011;44941;45.058;20.076;2023-05-10T04:09:52;8.02;;;4.55;;
59159;SDS011;44941;45.058;20.076;2023-05-10T04:12:18;8.57;;;4.70;;
59159;SDS011;44941;45.058;20.076;2023-05-10T04:14:44;7.45;;;5.28;;
59159;SDS011;44941;45.058;20.076;2023-05-10T04:17:10;7.70;;;5.38;;
59159;SDS011;44941;45.058;20.076;2023-05-10T04:19:36;10.90;;;5.13;;
59159;SDS011;44941;45.058;20.076;2023-05-10T04:22:02;8.48;;;5.32;;
59159;SDS011;44941;45.058;20.076;2023-05-10T04:24:29;13.45;;;6.38;;
59159;SDS011;44941;45.058;20.076;2023-05-10T04:26:55;11.07;;;5.57;;
59159;SDS011;44941;45.058;20.076;2023-05-10T04:29:21;12.77;;;5.78;;
59159;SDS011;44941;45.058;20.076;2023-05-10T04:31:47;19.10;;;5.82;;
59159;SDS011;44941;45.058;20.076;2023-05-10T04:34:14;11.45;;;5.72;;
59159;SDS011;44941;45.058;20.076;2023-05-10T04:36:40;13.05;;;7.75;;
59159;SDS011;44941;45.058;20.076;2023-05-10T04:39:06;12.85;;;6.07;;
59159;SDS011;44941;45.058;20.076;2023-05-10T04:41:32;12.25;;;7.05;;
59159;SDS011;44941;45.058;20.076;2023-05-10T04:43:58;9.65;;;6.22;;
59159;SDS011;44941;45.058;20.076;2023-05-10T04:46:24;12.60;;;6.60;;
59159;SDS011;44941;45.058;20.076;2023-05-10T04:48:59;11.40;;;7.03;;
59159;SDS011;44941;45.058;20.076;2023-05-10T04:51:28;14.53;;;6.67;;
59159;SDS011;44941;45.058;20.076;2023-05-10T04:54:04;11.43;;;6.40;;
59159;SDS011;44941;45.058;20.076;2023-05-10T04:56:46;10.10;;;6.60;;
59159;SDS011;44941;45.058;20.076;2023-05-10T04:59:12;11.48;;;6.85;;
59159;SDS011;44941;45.058;20.076;2023-05-10T05:01:38;12.88;;;6.38;;
59159;SDS011;44941;45.058;20.076;2023-05-10T05:04:04;10.20;;;5.80;;
59159;SDS011;44941;45.058;20.076;2023-05-10T05:06:31;11.45;;;7.32;;
59159;SDS011;44941;45.058;20.076;2023-05-10T05:08:58;12.07;;;6.05;;
59159;SDS011;44941;45.058;20.076;2023-05-10T05:14:16;15.15;;;6.85;;
59159;SDS011;44941;45.058;20.076;2023-05-10T05:16:42;13.02;;;6.65;;
59159;SDS011;44941;45.058;20.076;2023-05-10T05:19:08;9.95;;;5.97;;
59159;SDS011;44941;45.058;20.076;2023-05-10T05:21:34;14.00;;;5.68;;
59159;SDS011;44941;45.058;20.076;2023-05-10T05:24:00;14.38;;;5.75;;
59159;SDS011;44941;45.058;20.076;2023-05-10T05:26:27;12.82;;;5.47;;
59159;SDS011;44941;45.058;20.076;2023-05-10T05:28:53;13.40;;;5.00;;
59159;SDS011;44941;45.058;20.076;2023-05-10T05:31:19;12.73;;;5.85;;
59159;SDS011;44941;45.058;20.076;2023-05-10T05:33:46;12.20;;;5.75;;
59159;SDS011;44941;45.058;20.076;2023-05-10T05:36:12;16.50;;;5.57;;
59159;SDS011;44941;45.058;20.076;2023-05-10T05:38:38;11.07;;;5.22;;
59159;SDS011;44941;45.058;20.076;2023-05-10T05:41:04;11.43;;;5.38;;
59159;SDS011;44941;45.058;20.076;2023-05-10T05:43:30;13.90;;;6.35;;
59159;SDS011;44941;45.058;20.076;2023-05-10T05:45:56;17.63;;;5.55;;
59159;SDS011;44941;45.058;20.076;2023-05-10T05:48:23;11.65;;;5.60;;
59159;SDS011;44941;45.058;20.076;2023-05-10T05:50:49;18.30;;;5.88;;
59159;SDS011;44941;45.058;20.076;2023-05-10T05:53:15;14.57;;;5.70;;
59159;SDS011;44941;45.058;20.076;2023-05-10T05:55:50;13.57;;;5.35;;
59159;SDS011;44941;45.058;20.076;2023-05-10T05:58:17;8.48;;;5.40;;
59159;SDS011;44941;45.058;20.076;2023-05-10T06:00:43;10.55;;;5.18;;
59159;SDS011;44941;45.058;20.076;2023-05-10T06:03:09;14.48;;;5.45;;
59159;SDS011;44941;45.058;20.076;2023-05-10T06:05:36;12.55;;;5.75;;
59159;SDS011;44941;45.058;20.076;2023-05-10T06:08:02;15.40;;;5.65;;
59159;SDS011;44941;45.058;20.076;2023-05-10T06:10:28;9.75;;;5.70;;
59159;SDS011;44941;45.058;20.076;2023-05-10T06:12:55;12.27;;;5.57;;
59159;SDS011;44941;45.058;20.076;2023-05-10T06:15:21;12.73;;;6.07;;
59159;SDS011;44941;45.058;20.076;2023-05-10T06:17:47;12.85;;;5.40;;
59159;SDS011;44941;45.058;20.076;2023-05-10T06:20:14;8.95;;;5.15;;
59159;SDS011;44941;45.058;20.076;2023-05-10T06:22:41;15.45;;;5.65;;
59159;SDS011;44941;45.058;20.076;2023-05-10T06:25:07;14.27;;;5.32;;
59159;SDS011;44941;45.058;20.076;2023-05-10T06:27:33;22.33;;;4.85;;
59159;SDS011;44941;45.058;20.076;2023-05-10T06:29:59;10.27;;;5.40;;
59159;SDS011;44941;45.058;20.076;2023-05-10T06:32:25;13.80;;;5.40;;
59159;SDS011;44941;45.058;20.076;2023-05-10T06:34:52;10.07;;;5.10;;
59159;SDS011;44941;45.058;20.076;2023-05-10T06:37:18;10.27;;;5.28;;
59159;SDS011;44941;45.058;20.076;2023-05-10T06:39:44;13.18;;;4.70;;
59159;SDS011;44941;45.058;20.076;2023-05-10T06:42:28;11.90;;;5.40;;
59159;SDS011;44941;45.058;20.076;2023-05-10T06:44:54;13.43;;;5.10;;
59159;SDS011;44941;45.058;20.076;2023-05-10T06:47:20;18.60;;;5.38;;
59159;SDS011;44941;45.058;20.076;2023-05-10T06:49:47;9.88;;;4.63;;
59159;SDS011;44941;45.058;20.076;2023-05-10T06:52:13;9.15;;;5.10;;
59159;SDS011;44941;45.058;20.076;2023-05-10T06:54:39;10.75;;;4.93;;
59159;SDS011;44941;45.058;20.076;2023-05-10T06:57:05;11.98;;;4.80;;
59159;SDS011;44941;45.058;20.076;2023-05-10T06:59:31;11.90;;;4.97;;
59159;SDS011;44941;45.058;20.076;2023-05-10T07:01:57;15.60;;;5.95;;
59159;SDS011;44941;45.058;20.076;2023-05-10T07:04:23;15.02;;;4.75;;
59159;SDS011;44941;45.058;20.076;2023-05-10T07:06:49;12.43;;;4.47;;
59159;SDS011;44941;45.058;20.076;2023-05-10T07:09:19;9.30;;;4.50;;
59159;SDS011;44941;45.058;20.076;2023-05-10T07:12:00;9.23;;;4.13;;
59159;SDS011;44941;45.058;20.076;2023-05-10T07:14:27;14.77;;;4.72;;
59159;SDS011;44941;45.058;20.076;2023-05-10T07:17:05;16.95;;;4.70;;
59159;SDS011;44941;45.058;20.076;2023-05-10T07:19:31;9.57;;;4.13;;
59159;SDS011;44941;45.058;20.076;2023-05-10T07:21:57;13.52;;;4.07;;
59159;SDS011;44941;45.058;20.076;2023-05-10T07:24:36;15.00;;;4.80;;
59159;SDS011;44941;45.058;20.076;2023-05-10T07:30:03;6.55;;;3.72;;
59159;SDS011;44941;45.058;20.076;2023-05-10T07:32:41;10.70;;;3.97;;
59159;SDS011;44941;45.058;20.076;2023-05-10T07:35:16;17.60;;;4.38;;
59159;SDS011;44941;45.058;20.076;2023-05-10T07:38:05;12.65;;;4.05;;
59159;SDS011;44941;45.058;20.076;2023-05-10T07:40:43;24.52;;;4.20;;
59159;SDS011;44941;45.058;20.076;2023-05-10T07:43:19;9.57;;;4.03;;
59159;SDS011;44941;45.058;20.076;2023-05-10T07:45:45;9.88;;;3.90;;
59159;SDS011;44941;45.058;20.076;2023-05-10T07:48:17;11.77;;;4.00;;
59159;SDS011;44941;45.058;20.076;2023-05-10T07:50:46;15.82;;;4.18;;
59159;SDS011;44941;45.058;20.076;2023-05-10T07:53:12;15.55;;;4.80;;
59159;SDS011;44941;45.058;20.076;2023-05-10T07:55:38;18.25;;;4.82;;
59159;SDS011;44941;45.058;20.076;2023-05-10T07:58:05;9.82;;;3.88;;
59159;SDS011;44941;45.058;20.076;2023-05-10T08:00:31;9.60;;;3.83;;
59159;SDS011;44941;45.058;20.076;2023-05-10T08:02:57;10.60;;;3.60;;
59159;SDS011;44941;45.058;20.076;2023-05-10T08:05:23;13.30;;;4.90;;
59159;SDS011;44941;45.058;20.076;2023-05-10T08:07:49;13.10;;;3.95;;
59159;SDS011;44941;45.058;20.076;2023-05-10T08:10:15;12.02;;;3.83;;
59159;SDS011;44941;45.058;20.076;2023-05-10T08:12:42;10.38;;;3.90;;
59159;SDS011;44941;45.058;20.076;2023-05-10T08:15:08;8.38;;;4.00;;
59159;SDS011;44941;45.058;20.076;2023-05-10T08:17:34;12.93;;;3.78;;
59159;SDS011;44941;45.058;20.076;2023-05-10T08:20:00;11.02;;;3.95;;
59159;SDS011;44941;45.058;20.076;2023-05-10T08:22:27;8.85;;;4.30;;
59159;SDS011;44941;45.058;20.076;2023-05-10T08:24:54;12.15;;;4.60;;
59159;SDS011;44941;45.058;20.076;2023-05-10T08:27:20;9.48;;;4.10;;
59159;SDS011;44941;45.058;20.076;2023-05-10T08:29:46;11.68;;;4.65;;
59159;SDS011;44941;45.058;20.076;2023-05-10T08:32:13;12.25;;;4.93;;
59159;SDS011;44941;45.058;20.076;2023-05-10T08:34:39;9.73;;;4.35;;
59159;SDS011;44941;45.058;20.076;2023-05-10T08:37:05;10.05;;;4.53;;
59159;SDS011;44941;45.058;20.076;2023-05-10T08:39:33;8.23;;;4.20;;
59159;SDS011;44941;45.058;20.076;2023-05-10T08:42:01;9.25;;;4.05;;
59159;SDS011;44941;45.058;20.076;2023-05-10T08:46:54;12.40;;;4.10;;
59159;SDS011;44941;45.058;20.076;2023-05-10T08:49:20;11.70;;;4.40;;
59159;SDS011;44941;45.058;20.076;2023-05-10T08:51:49;13.55;;;4.40;;
59159;SDS011;44941;45.058;20.076;2023-05-10T08:54:16;20.13;;;4.22;;
59159;SDS011;44941;45.058;20.076;2023-05-10T08:56:42;9.27;;;4.28;;
59159;SDS011;44941;45.058;20.076;2023-05-10T08:59:08;7.53;;;3.80;;
59159;SDS011;44941;45.058;20.076;2023-05-10T09:01:35;9.77;;;4.03;;
59159;SDS011;44941;45.058;20.076;2023-05-10T09:06:29;7.45;;;4.18;;
59159;SDS011;44941;45.058;20.076;2023-05-10T09:08:55;12.27;;;4.00;;
59159;SDS011;44941;45.058;20.076;2023-05-10T09:11:21;12.65;;;4.47;;
59159;SDS011;44941;45.058;20.076;2023-05-10T09:13:48;11.60;;;3.63;;
59159;SDS011;44941;45.058;20.076;2023-05-10T09:16:16;11.00;;;3.92;;
59159;SDS011;44941;45.058;20.076;2023-05-10T09:18:42;11.85;;;3.60;;
59159;SDS011;44941;45.058;20.076;2023-05-10T09:21:08;9.77;;;3.70;;
59159;SDS011;44941;45.058;20.076;2023-05-10T09:23:35;9.60;;;3.40;;
59159;SDS011;44941;45.058;20.076;2023-05-10T09:26:02;7.05;;;3.28;;
59159;SDS011;44941;45.058;20.076;2023-05-10T09:28:33;11.18;;;4.03;;
59159;SDS011;44941;45.058;20.076;2023-05-10T09:31:00;16.65;;;3.25;;
59159;SDS011;44941;45.058;20.076;2023-05-10T09:33:26;13.30;;;3.88;;
59159;SDS011;44941;45.058;20.076;2023-05-10T09:35:52;13.15;;;3.50;;
59159;SDS011;44941;45.058;20.076;2023-05-10T09:38:18;5.80;;;3.03;;
59159;SDS011;44941;45.058;20.076;2023-05-10T09:40:50;6.10;;;2.92;;
59159;SDS011;44941;45.058;20.076;2023-05-10T09:43:19;9.63;;;3.00;;
59159;SDS011;44941;45.058;20.076;2023-05-10T09:45:45;13.43;;;3.55;;
59159;SDS011;44941;45.058;20.076;2023-05-10T09:48:15;8.98;;;2.83;;
59159;SDS011;44941;45.058;20.076;2023-05-10T09:50:41;10.50;;;3.92;;
59159;SDS011;44941;45.058;20.076;2023-05-10T09:53:07;6.63;;;3.38;;
59159;SDS011;44941;45.058;20.076;2023-05-10T09:55:40;9.10;;;3.28;;
59159;SDS011;44941;45.058;20.076;2023-05-10T09:58:07;10.68;;;3.00;;
59159;SDS011;44941;45.058;20.076;2023-05-10T10:00:39;9.43;;;2.75;;
59159;SDS011;44941;45.058;20.076;2023-05-10T10:03:05;10.95;;;3.63;;
59159;SDS011;44941;45.058;20.076;2023-05-10T10:05:35;8.65;;;3.10;;
59159;SDS011;44941;45.058;20.076;2023-05-10T10:08:04;15.23;;;3.28;;
59159;SDS011;44941;45.058;20.076;2023-05-10T10:10:34;9.80;;;2.78;;
59159;SDS011;44941;45.058;20.076;2023-05-10T10:13:01;9.10;;;2.72;;
59159;SDS011;44941;45.058;20.076;2023-05-10T10:15:27;12.07;;;4.35;;
59159;SDS011;44941;45.058;20.076;2023-05-10T10:17:53;9.63;;;2.97;;
59159;SDS011;44941;45.058;20.076;2023-05-10T10:20:20;8.75;;;2.90;;
59159;SDS011;44941;45.058;20.076;2023-05-10T10:22:46;6.43;;;2.67;;
59159;SDS011;44941;45.058;20.076;2023-05-10T10:25:13;7.60;;;2.67;;
59159;SDS011;44941;45.058;20.076;2023-05-10T10:35:10;8.98;;;2.90;;
59159;SDS011;44941;45.058;20.076;2023-05-10T10:37:43;7.25;;;2.00;;
59159;SDS011;44941;45.058;20.076;2023-05-10T10:40:32;7.97;;;2.40;;
59159;SDS011;44941;45.058;20.076;2023-05-10T10:42:59;5.20;;;2.90;;
59159;SDS011;44941;45.058;20.076;2023-05-10T10:45:46;6.18;;;2.30;;
59159;SDS011;44941;45.058;20.076;2023-05-10T10:48:20;6.97;;;2.53;;
59159;SDS011;44941;45.058;20.076;2023-05-10T10:50:47;7.18;;;2.22;;
59159;SDS011;44941;45.058;20.076;2023-05-10T10:53:13;7.78;;;2.67;;
59159;SDS011;44941;45.058;20.076;2023-05-10T10:55:46;4.03;;;2.33;;
59159;SDS011;44941;45.058;20.076;2023-05-10T10:58:28;5.60;;;2.20;;
59159;SDS011;44941;45.058;20.076;2023-05-10T11:01:16;8.82;;;2.67;;
59159;SDS011;44941;45.058;20.076;2023-05-10T11:03:54;8.60;;;2.58;;
59159;SDS011;44941;45.058;20.076;2023-05-10T11:06:30;16.83;;;2.88;;
59159;SDS011;44941;45.058;20.076;2023-05-10T11:08:57;7.82;;;2.67;;
59159;SDS011;44941;45.058;20.076;2023-05-10T11:11:23;5.82;;;2.35;;
59159;SDS011;44941;45.058;20.076;2023-05-10T11:13:50;7.97;;;2.60;;
59159;SDS011;44941;45.058;20.076;2023-05-10T11:16:23;7.25;;;1.92;;
59159;SDS011;44941;45.058;20.076;2023-05-10T11:19:02;5.32;;;2.70;;
59159;SDS011;44941;45.058;20.076;2023-05-10T11:21:32;7.55;;;2.00;;
59159;SDS011;44941;45.058;20.076;2023-05-10T11:23:59;7.70;;;2.30;;
59159;SDS011;44941;45.058;20.076;2023-05-10T11:26:31;10.02;;;2.38;;
59159;SDS011;44941;45.058;20.076;2023-05-10T11:28:57;11.80;;;3.03;;
59159;SDS011;44941;45.058;20.076;2023-05-10T11:31:25;5.75;;;1.80;;
59159;SDS011;44941;45.058;20.076;2023-05-10T11:33:55;3.38;;;1.70;;
59159;SDS011;44941;45.058;20.076;2023-05-10T11:36:26;4.97;;;2.22;;
59159;SDS011;44941;45.058;20.076;2023-05-10T11:38:52;9.57;;;2.00;;
59159;SDS011;44941;45.058;20.076;2023-05-10T11:41:19;6.40;;;1.90;;
59159;SDS011;44941;45.058;20.076;2023-05-10T11:43:52;7.47;;;2.17;;
59159;SDS011;44941;45.058;20.076;2023-05-10T11:46:19;10.90;;;2.03;;
59159;SDS011;44941;45.058;20.076;2023-05-10T11:48:46;5.38;;;2.08;;
59159;SDS011;44941;45.058;20.076;2023-05-10T11:51:13;4.95;;;1.58;;
59159;SDS011;44941;45.058;20.076;2023-05-10T11:53:39;3.28;;;1.70;;
59159;SDS011;44941;45.058;20.076;2023-05-10T11:56:06;10.25;;;2.00;;
59159;SDS011;44941;45.058;20.076;2023-05-10T11:58:32;7.28;;;1.85;;
59159;SDS011;44941;45.058;20.076;2023-05-10T12:00:59;6.68;;;1.60;;
59159;SDS011;44941;45.058;20.076;2023-05-10T12:03:25;7.22;;;1.80;;
59159;SDS011;44941;45.058;20.076;2023-05-10T12:05:52;7.57;;;1.90;;
59159;SDS011;44941;45.058;20.076;2023-05-10T12:08:25;4.65;;;1.80;;
59159;SDS011;44941;45.058;20.076;2023-05-10T12:10:52;5.97;;;1.60;;
59159;SDS011;44941;45.058;20.076;2023-05-10T12:13:19;6.13;;;1.90;;
59159;SDS011;44941;45.058;20.076;2023-05-10T12:15:46;9.25;;;1.85;;
59159;SDS011;44941;45.058;20.076;2023-05-10T12:18:12;5.55;;;1.80;;
59159;SDS011;44941;45.058;20.076;2023-05-10T12:20:39;7.55;;;1.83;;
59159;SDS011;44941;45.058;20.076;2023-05-10T12:23:05;6.68;;;2.05;;
59159;SDS011;44941;45.058;20.076;2023-05-10T12:25:34;7.00;;;1.75;;
59159;SDS011;44941;45.058;20.076;2023-05-10T12:28:02;4.07;;;1.45;;
59159;SDS011;44941;45.058;20.076;2023-05-10T12:30:29;6.50;;;1.85;;
59159;SDS011;44941;45.058;20.076;2023-05-10T12:33:00;5.13;;;1.73;;
59159;SDS011;44941;45.058;20.076;2023-05-10T12:35:29;6.05;;;1.63;;
59159;SDS011;44941;45.058;20.076;2023-05-10T12:37:56;6.55;;;1.38;;
59159;SDS011;44941;45.058;20.076;2023-05-10T12:40:22;8.45;;;1.77;;
59159;SDS011;44941;45.058;20.076;2023-05-10T12:43:00;4.07;;;1.50;;
59159;SDS011;44941;45.058;20.076;2023-05-10T12:45:26;6.88;;;1.50;;
59159;SDS011;44941;45.058;20.076;2023-05-10T12:47:52;7.13;;;2.03;;
59159;SDS011;44941;45.058;20.076;2023-05-10T12:50:18;4.47;;;1.80;;
59159;SDS011;44941;45.058;20.076;2023-05-10T12:52:45;7.25;;;1.77;;
59159;SDS011;44941;45.058;20.076;2023-05-10T12:55:11;4.97;;;1.75;;
59159;SDS011;44941;45.058;20.076;2023-05-10T12:57:37;11.60;;;2.33;;
59159;SDS011;44941;45.058;20.076;2023-05-10T13:00:03;14.98;;;2.10;;
59159;SDS011;44941;45.058;20.076;2023-05-10T13:02:30;6.33;;;1.70;;
59159;SDS011;44941;45.058;20.076;2023-05-10T13:04:56;13.43;;;1.73;;
59159;SDS011;44941;45.058;20.076;2023-05-10T13:07:22;10.77;;;1.80;;
59159;SDS011;44941;45.058;20.076;2023-05-10T13:09:48;6.57;;;1.42;;
59159;SDS011;44941;45.058;20.076;2023-05-10T13:12:15;11.05;;;2.15;;
59159;SDS011;44941;45.058;20.076;2023-05-10T13:14:42;12.65;;;2.10;;
59159;SDS011;44941;45.058;20.076;2023-05-10T13:17:08;9.98;;;1.80;;
59159;SDS011;44941;45.058;20.076;2023-05-10T13:19:34;4.95;;;2.25;;
59159;SDS011;44941;45.058;20.076;2023-05-10T13:22:00;14.45;;;1.88;;
59159;SDS011;44941;45.058;20.076;2023-05-10T13:24:26;8.20;;;1.98;;
59159;SDS011;44941;45.058;20.076;2023-05-10T13:26:53;9.20;;;2.22;;
59159;SDS011;44941;45.058;20.076;2023-05-10T13:29:19;10.13;;;1.83;;
59159;SDS011;44941;45.058;20.076;2023-05-10T13:31:47;10.98;;;1.85;;
59159;SDS011;44941;45.058;20.076;2023-05-10T13:34:13;8.57;;;1.40;;
59159;SDS011;44941;45.058;20.076;2023-05-10T13:36:39;5.45;;;1.48;;
59159;SDS011;44941;45.058;20.076;2023-05-10T13:39:10;4.63;;;1.73;;
59159;SDS011;44941;45.058;20.076;2023-05-10T13:41:36;9.15;;;2.00;;
59159;SDS011;44941;45.058;20.076;2023-05-10T13:44:02;4.20;;;1.48;;
59159;SDS011;44941;45.058;20.076;2023-05-10T13:46:28;5.40;;;1.58;;
59159;SDS011;44941;45.058;20.076;2023-05-10T13:48:55;4.57;;;1.60;;
59159;SDS011;44941;45.058;20.076;2023-05-10T13:51:22;6.85;;;1.85;;
59159;SDS011;44941;45.058;20.076;2023-05-10T13:53:48;11.00;;;1.80;;
59159;SDS011;44941;45.058;20.076;2023-05-10T13:56:14;13.77;;;1.88;;
59159;SDS011;44941;45.058;20.076;2023-05-10T13:58:40;18.92;;;1.88;;
59159;SDS011;44941;45.058;20.076;2023-05-10T14:01:06;7.13;;;1.55;;
59159;SDS011;44941;45.058;20.076;2023-05-10T14:03:32;12.40;;;2.00;;
59159;SDS011;44941;45.058;20.076;2023-05-10T14:05:58;4.50;;;1.30;;
59159;SDS011;44941;45.058;20.076;2023-05-10T14:08:25;8.63;;;1.60;;
59159;SDS011;44941;45.058;20.076;2023-05-10T14:10:52;11.23;;;2.35;;
59159;SDS011;44941;45.058;20.076;2023-05-10T14:13:20;9.30;;;1.35;;
59159;SDS011;44941;45.058;20.076;2023-05-10T14:15:46;8.90;;;1.65;;
59159;SDS011;44941;45.058;20.076;2023-05-10T14:18:12;8.63;;;1.63;;
59159;SDS011;44941;45.058;20.076;2023-05-10T14:20:38;2.88;;;1.30;;
59159;SDS011;44941;45.058;20.076;2023-05-10T14:23:04;9.20;;;1.80;;
59159;SDS011;44941;45.058;20.076;2023-05-10T14:25:30;9.60;;;2.20;;
59159;SDS011;44941;45.058;20.076;2023-05-10T14:27:58;7.47;;;1.63;;
59159;SDS011;44941;45.058;20.076;2023-05-10T14:30:24;7.70;;;1.98;;
59159;SDS011;44941;45.058;20.076;2023-05-10T14:32:50;7.88;;;1.50;;
59159;SDS011;44941;45.058;20.076;2023-05-10T14:35:18;11.02;;;1.67;;
59159;SDS011;44941;45.058;20.076;2023-05-10T14:37:45;6.90;;;2.28;;
59159;SDS011;44941;45.058;20.076;2023-05-10T14:40:11;10.93;;;2.17;;
59159;SDS011;44941;45.058;20.076;2023-05-10T14:42:37;8.02;;;1.73;;
59159;SDS011;44941;45.058;20.076;2023-05-10T14:45:03;5.68;;;1.70;;
59159;SDS011;44941;45.058;20.076;2023-05-10T14:47:30;11.85;;;2.30;;
59159;SDS011;44941;45.058;20.076;2023-05-10T14:49:56;9.18;;;2.25;;
59159;SDS011;44941;45.058;20.076;2023-05-10T14:52:23;10.23;;;1.42;;
59159;SDS011;44941;45.058;20.076;2023-05-10T14:54:49;12.90;;;2.50;;
59159;SDS011;44941;45.058;20.076;2023-05-10T14:57:15;17.27;;;2.40;;
59159;SDS011;44941;45.058;20.076;2023-05-10T14:59:44;11.65;;;2.15;;
59159;SDS011;44941;45.058;20.076;2023-05-10T15:02:10;14.05;;;1.60;;
59159;SDS011;44941;45.058;20.076;2023-05-10T15:04:37;6.43;;;1.95;;
59159;SDS011;44941;45.058;20.076;2023-05-10T15:07:03;9.30;;;1.65;;
59159;SDS011;44941;45.058;20.076;2023-05-10T15:09:29;9.98;;;1.60;;
59159;SDS011;44941;45.058;20.076;2023-05-10T15:11:55;4.55;;;1.13;;
59159;SDS011;44941;45.058;20.076;2023-05-10T15:14:25;3.80;;;1.40;;
59159;SDS011;44941;45.058;20.076;2023-05-10T15:16:51;7.43;;;1.52;;
59159;SDS011;44941;45.058;20.076;2023-05-10T15:19:17;9.02;;;1.70;;
59159;SDS011;44941;45.058;20.076;2023-05-10T15:21:43;11.45;;;2.10;;
59159;SDS011;44941;45.058;20.076;2023-05-10T15:24:09;5.63;;;1.33;;
59159;SDS011;44941;45.058;20.076;2023-05-10T15:26:35;13.70;;;1.67;;
59159;SDS011;44941;45.058;20.076;2023-05-10T15:29:01;4.35;;;1.55;;
59159;SDS011;44941;45.058;20.076;2023-05-10T15:31:27;14.57;;;2.22;;
59159;SDS011;44941;45.058;20.076;2023-05-10T15:33:57;8.50;;;2.23;;
59159;SDS011;44941;45.058;20.076;2023-05-10T15:36:24;5.15;;;1.20;;
59159;SDS011;44941;45.058;20.076;2023-05-10T15:38:50;9.70;;;1.60;;
59159;SDS011;44941;45.058;20.076;2023-05-10T15:41:16;5.78;;;1.60;;
59159;SDS011;44941;45.058;20.076;2023-05-10T15:43:42;3.88;;;1.40;;
59159;SDS011;44941;45.058;20.076;2023-05-10T15:46:08;4.60;;;1.30;;
59159;SDS011;44941;45.058;20.076;2023-05-10T15:48:34;6.47;;;1.65;;
59159;SDS011;44941;45.058;20.076;2023-05-10T15:51:00;9.70;;;2.33;;
59159;SDS011;44941;45.058;20.076;2023-05-10T15:53:26;7.73;;;1.67;;
59159;SDS011;44941;45.058;20.076;2023-05-10T15:55:52;6.20;;;1.50;;
59159;SDS011;44941;45.058;20.076;2023-05-10T15:58:19;5.63;;;1.38;;
59159;SDS011;44941;45.058;20.076;2023-05-10T16:00:45;5.40;;;1.27;;
59159;SDS011;44941;45.058;20.076;2023-05-10T16:03:11;3.17;;;1.08;;
59159;SDS011;44941;45.058;20.076;2023-05-10T16:05:37;7.03;;;1.55;;
59159;SDS011;44941;45.058;20.076;2023-05-10T16:08:03;8.07;;;1.60;;